Airfield :
LOGIN :

Register | Disclaimer

   EN    FR    IT 

 










Legend :    VFR   Marginal VFR   IFR   Intensive IFR   Very Intensive IFR
Visi :
Ceiling :
>= 8 km
>= 3000ft
5 to 8 km
1000 to 3000 ft
1500m to 5 km
500 to 1000 ft
800 to 1500m
200 to 500 ft
< 800m
< 200 ft
Symbols :   Thunderstorms  Fog  Heavy snow  Heavy precipitations  Wind > 20 kt
SIGMETs :     Misc.  Thunderstorms  Icing  Turbulence  Mountain Waves  Volcanic Ashes







- Airport Elevation : 1789 ft
- IATA code : PRN


BKPR - Pristina

CURRENT METAR :
  • 141730Z VRB03KT CAVOK 06/01 Q1026 NOSIG RMK 17010095

EXPIRED METARs :
  • 141700Z VRB03KT CAVOK 08/02 Q1026 NOSIG RMK 17010095
  • 141630Z 33004KT CAVOK 09/02 Q1026 NOSIG RMK 17010095
  • 141600Z 35006KT CAVOK 09/03 Q1026 NOSIG RMK 17010095
  • 141530Z 02006KT CAVOK 09/03 Q1025 NOSIG RMK 17010095

TAF TAF BKPR
Valid from the 14 at 18:00 until the 15 at 18:00 UTC


141730Z 1418/1518 35005KT 9999 SCT040
BECMG 1500/1502 1500 BR
PROB40
TEMPO 1503/1507 0500 FZFG BKN003
BECMG 1507/1510 9999 NSW
No reported NOTAMs for that airfield.



MET'MAP, your aeronautical weather chart ! - Copyright ORBIFLY December 2007 - Disclaimer

ORBIFLY MET'MAP TEAM :

Programming & Development : Alexandra Zaïnal
Concept & Development : Baudouin d'Aumeries
Co-Development & Prog : Marc-Olivier Méhu
Technical & hardware support : Manuel Goepfert

Contact : metmap@orbifly.com




SOURCES & CREDITS :

   NOAA